CheckWX is a tool to help pilots better visualize weather data.  It is not intended as a substitute for an official pre-flight weather briefing.

07:06:15 UTC

KOMH METAR
Orange County Airport
Orange, Virginia, USA
Current

11 mins ago

KOMH 220655Z AUTO 00000KT 10SM CLR M06/M11 A3040 RMK AO2
Observed
Feb-22 @ 06:55 UTC
Visibility
10 SM
Flight Rules
VFR
Cloud Levels
  • Clear skies
Temperature
-6°C / 21°F
Dewpoint
-11°C / 12°F
Humidity
68%
Altimeter
30.4" Hg
Pressure
1029.42 hPa
Previous

51 mins ago

KOMH 220615Z AUTO 00000KT 10SM CLR M06/M11 A3041 RMK AO2
Observed
Feb-22 @ 06:15 UTC
Visibility
10 SM
Flight Rules
VFR
Cloud Levels
  • Clear skies
Temperature
-6°C / 21°F
Dewpoint
-11°C / 12°F
Humidity
68%
Altimeter
30.41" Hg
Pressure
1029.82 hPa
Previous

1 hour ago

KOMH 220555Z AUTO 00000KT 10SM CLR M06/M10 A3041 RMK AO2
Observed
Feb-22 @ 05:55 UTC
Visibility
10 SM
Flight Rules
VFR
Cloud Levels
  • Clear skies
Temperature
-6°C / 21°F
Dewpoint
-10°C / 14°F
Humidity
74%
Altimeter
30.41" Hg
Pressure
1029.82 hPa